sensor_id;sensor_type;location;lat;lon;timestamp;P1;durP1;ratioP1;P2;durP2;ratioP2
37288;SDS011;23174;49.462;11.000;2023-09-07T00:00:05;4.03;;;3.67;;
37288;SDS011;23174;49.462;11.000;2023-09-07T00:02:10;10.05;;;3.88;;
37288;SDS011;23174;49.462;11.000;2023-09-07T00:04:11;9.05;;;4.38;;
37288;SDS011;23174;49.462;11.000;2023-09-07T00:06:12;5.10;;;4.30;;
37288;SDS011;23174;49.462;11.000;2023-09-07T00:08:13;7.22;;;4.78;;
37288;SDS011;23174;49.462;11.000;2023-09-07T00:10:13;6.15;;;4.65;;
37288;SDS011;23174;49.462;11.000;2023-09-07T00:12:15;9.95;;;5.25;;
37288;SDS011;23174;49.462;11.000;2023-09-07T00:14:15;10.27;;;5.85;;
37288;SDS011;23174;49.462;11.000;2023-09-07T00:16:16;8.68;;;5.95;;
37288;SDS011;23174;49.462;11.000;2023-09-07T00:18:16;10.15;;;6.03;;
37288;SDS011;23174;49.462;11.000;2023-09-07T00:20:17;10.52;;;5.75;;
37288;SDS011;23174;49.462;11.000;2023-09-07T00:22:19;10.00;;;5.65;;
37288;SDS011;23174;49.462;11.000;2023-09-07T00:24:19;13.40;;;5.72;;
37288;SDS011;23174;49.462;11.000;2023-09-07T00:26:21;10.90;;;5.45;;
37288;SDS011;23174;49.462;11.000;2023-09-07T00:28:22;8.38;;;5.55;;
37288;SDS011;23174;49.462;11.000;2023-09-07T00:30:22;10.13;;;5.55;;
37288;SDS011;23174;49.462;11.000;2023-09-07T00:32:23;11.30;;;5.68;;
37288;SDS011;23174;49.462;11.000;2023-09-07T00:34:23;8.00;;;5.40;;
37288;SDS011;23174;49.462;11.000;2023-09-07T00:36:24;6.93;;;4.95;;
37288;SDS011;23174;49.462;11.000;2023-09-07T00:38:24;5.63;;;4.25;;
37288;SDS011;23174;49.462;11.000;2023-09-07T00:40:24;4.10;;;3.65;;
37288;SDS011;23174;49.462;11.000;2023-09-07T00:42:26;4.28;;;3.88;;
37288;SDS011;23174;49.462;11.000;2023-09-07T00:44:26;8.82;;;4.13;;
37288;SDS011;23174;49.462;11.000;2023-09-07T00:46:27;6.53;;;3.70;;
37288;SDS011;23174;49.462;11.000;2023-09-07T00:48:27;5.80;;;4.25;;
37288;SDS011;23174;49.462;11.000;2023-09-07T00:50:28;6.95;;;3.95;;
37288;SDS011;23174;49.462;11.000;2023-09-07T00:52:28;3.92;;;3.63;;
37288;SDS011;23174;49.462;11.000;2023-09-07T00:54:29;4.45;;;3.70;;
37288;SDS011;23174;49.462;11.000;2023-09-07T00:56:30;5.05;;;4.18;;
37288;SDS011;23174;49.462;11.000;2023-09-07T00:58:31;7.53;;;3.97;;
37288;SDS011;23174;49.462;11.000;2023-09-07T01:00:32;4.68;;;4.28;;
37288;SDS011;23174;49.462;11.000;2023-09-07T01:02:34;4.60;;;4.20;;
37288;SDS011;23174;49.462;11.000;2023-09-07T01:04:35;6.80;;;4.50;;
37288;SDS011;23174;49.462;11.000;2023-09-07T01:06:39;4.85;;;4.03;;
37288;SDS011;23174;49.462;11.000;2023-09-07T01:08:49;6.53;;;4.05;;
37288;SDS011;23174;49.462;11.000;2023-09-07T01:10:51;4.57;;;3.95;;
37288;SDS011;23174;49.462;11.000;2023-09-07T01:12:52;8.02;;;4.00;;
37288;SDS011;23174;49.462;11.000;2023-09-07T01:14:53;4.43;;;4.00;;
37288;SDS011;23174;49.462;11.000;2023-09-07T01:16:53;9.05;;;4.55;;
37288;SDS011;23174;49.462;11.000;2023-09-07T01:18:54;4.28;;;3.28;;
37288;SDS011;23174;49.462;11.000;2023-09-07T01:20:55;5.68;;;4.07;;
37288;SDS011;23174;49.462;11.000;2023-09-07T01:22:58;6.88;;;3.60;;
37288;SDS011;23174;49.462;11.000;2023-09-07T01:24:58;6.50;;;3.42;;
37288;SDS011;23174;49.462;11.000;2023-09-07T01:27:01;4.35;;;3.80;;
37288;SDS011;23174;49.462;11.000;2023-09-07T01:29:03;4.30;;;3.90;;
37288;SDS011;23174;49.462;11.000;2023-09-07T01:31:04;4.95;;;4.07;;
37288;SDS011;23174;49.462;11.000;2023-09-07T01:33:05;4.00;;;3.60;;
37288;SDS011;23174;49.462;11.000;2023-09-07T01:35:06;5.10;;;3.83;;
37288;SDS011;23174;49.462;11.000;2023-09-07T01:37:09;4.03;;;3.60;;
37288;SDS011;23174;49.462;11.000;2023-09-07T01:39:10;4.60;;;3.83;;
37288;SDS011;23174;49.462;11.000;2023-09-07T01:41:10;4.55;;;3.75;;
37288;SDS011;23174;49.462;11.000;2023-09-07T01:43:11;4.00;;;3.70;;
37288;SDS011;23174;49.462;11.000;2023-09-07T01:45:12;3.97;;;3.67;;
37288;SDS011;23174;49.462;11.000;2023-09-07T01:47:12;3.95;;;3.63;;
37288;SDS011;23174;49.462;11.000;2023-09-07T01:49:13;10.50;;;3.92;;
37288;SDS011;23174;49.462;11.000;2023-09-07T01:51:13;4.65;;;3.65;;
37288;SDS011;23174;49.462;11.000;2023-09-07T01:53:14;6.10;;;4.10;;
37288;SDS011;23174;49.462;11.000;2023-09-07T01:55:14;4.30;;;3.70;;
37288;SDS011;23174;49.462;11.000;2023-09-07T01:57:15;7.65;;;3.55;;
37288;SDS011;23174;49.462;11.000;2023-09-07T01:59:15;3.95;;;3.55;;
37288;SDS011;23174;49.462;11.000;2023-09-07T02:01:26;6.85;;;4.00;;
37288;SDS011;23174;49.462;11.000;2023-09-07T02:03:29;3.65;;;3.35;;
37288;SDS011;23174;49.462;11.000;2023-09-07T02:05:30;6.13;;;3.40;;
37288;SDS011;23174;49.462;11.000;2023-09-07T02:07:32;5.78;;;3.60;;
37288;SDS011;23174;49.462;11.000;2023-09-07T02:09:33;8.43;;;3.38;;
37288;SDS011;23174;49.462;11.000;2023-09-07T02:11:33;3.83;;;3.50;;
37288;SDS011;23174;49.462;11.000;2023-09-07T02:13:34;4.15;;;3.67;;
37288;SDS011;23174;49.462;11.000;2023-09-07T02:15:37;3.80;;;3.50;;
37288;SDS011;23174;49.462;11.000;2023-09-07T02:17:38;3.85;;;3.28;;
37288;SDS011;23174;49.462;11.000;2023-09-07T02:19:38;5.57;;;3.38;;
37288;SDS011;23174;49.462;11.000;2023-09-07T02:21:39;4.32;;;3.50;;
37288;SDS011;23174;49.462;11.000;2023-09-07T02:23:39;3.67;;;3.30;;
37288;SDS011;23174;49.462;11.000;2023-09-07T02:25:41;3.72;;;3.42;;
37288;SDS011;23174;49.462;11.000;2023-09-07T02:27:41;3.58;;;3.28;;
37288;SDS011;23174;49.462;11.000;2023-09-07T02:29:42;3.58;;;3.28;;
37288;SDS011;23174;49.462;11.000;2023-09-07T02:31:42;3.50;;;3.30;;
37288;SDS011;23174;49.462;11.000;2023-09-07T02:33:43;4.38;;;3.38;;
37288;SDS011;23174;49.462;11.000;2023-09-07T02:35:43;3.65;;;3.33;;
37288;SDS011;23174;49.462;11.000;2023-09-07T02:37:44;4.10;;;3.25;;
37288;SDS011;23174;49.462;11.000;2023-09-07T02:39:45;4.03;;;3.60;;
37288;SDS011;23174;49.462;11.000;2023-09-07T02:41:45;3.70;;;3.40;;
37288;SDS011;23174;49.462;11.000;2023-09-07T02:43:46;3.65;;;3.33;;
37288;SDS011;23174;49.462;11.000;2023-09-07T02:45:46;3.92;;;3.30;;
37288;SDS011;23174;49.462;11.000;2023-09-07T02:47:48;3.25;;;3.05;;
37288;SDS011;23174;49.462;11.000;2023-09-07T02:49:50;3.28;;;2.97;;
37288;SDS011;23174;49.462;11.000;2023-09-07T02:51:51;5.53;;;3.30;;
37288;SDS011;23174;49.462;11.000;2023-09-07T02:53:53;3.85;;;3.45;;
37288;SDS011;23174;49.462;11.000;2023-09-07T02:55:56;3.75;;;3.42;;
37288;SDS011;23174;49.462;11.000;2023-09-07T02:57:56;3.40;;;3.20;;
37288;SDS011;23174;49.462;11.000;2023-09-07T02:59:57;3.53;;;3.22;;
37288;SDS011;23174;49.462;11.000;2023-09-07T03:01:58;4.00;;;3.60;;
37288;SDS011;23174;49.462;11.000;2023-09-07T03:03:58;3.60;;;3.30;;
37288;SDS011;23174;49.462;11.000;2023-09-07T03:06:07;3.80;;;3.35;;
37288;SDS011;23174;49.462;11.000;2023-09-07T03:08:11;3.85;;;3.55;;
37288;SDS011;23174;49.462;11.000;2023-09-07T03:10:12;6.13;;;3.45;;
37288;SDS011;23174;49.462;11.000;2023-09-07T03:12:13;4.30;;;3.80;;
37288;SDS011;23174;49.462;11.000;2023-09-07T03:14:13;6.95;;;3.55;;
37288;SDS011;23174;49.462;11.000;2023-09-07T03:16:14;3.72;;;3.42;;
37288;SDS011;23174;49.462;11.000;2023-09-07T03:18:15;5.13;;;4.20;;
37288;SDS011;23174;49.462;11.000;2023-09-07T03:20:15;4.90;;;3.60;;
37288;SDS011;23174;49.462;11.000;2023-09-07T03:22:16;3.67;;;3.38;;
37288;SDS011;23174;49.462;11.000;2023-09-07T03:24:16;3.83;;;3.58;;
37288;SDS011;23174;49.462;11.000;2023-09-07T03:26:17;3.53;;;3.22;;
37288;SDS011;23174;49.462;11.000;2023-09-07T03:28:17;4.03;;;3.63;;
37288;SDS011;23174;49.462;11.000;2023-09-07T03:30:18;6.88;;;3.70;;
37288;SDS011;23174;49.462;11.000;2023-09-07T03:32:18;4.35;;;4.05;;
37288;SDS011;23174;49.462;11.000;2023-09-07T03:34:19;4.70;;;3.53;;
37288;SDS011;23174;49.462;11.000;2023-09-07T03:36:19;3.90;;;3.60;;
37288;SDS011;23174;49.462;11.000;2023-09-07T03:38:21;4.65;;;3.63;;
37288;SDS011;23174;49.462;11.000;2023-09-07T03:40:22;4.40;;;4.00;;
37288;SDS011;23174;49.462;11.000;2023-09-07T03:42:23;4.20;;;3.60;;
37288;SDS011;23174;49.462;11.000;2023-09-07T03:44:23;8.13;;;3.80;;
37288;SDS011;23174;49.462;11.000;2023-09-07T03:46:24;3.72;;;3.40;;
37288;SDS011;23174;49.462;11.000;2023-09-07T03:48:24;4.15;;;3.28;;
37288;SDS011;23174;49.462;11.000;2023-09-07T03:50:25;4.32;;;3.30;;
37288;SDS011;23174;49.462;11.000;2023-09-07T03:52:25;4.30;;;3.22;;
37288;SDS011;23174;49.462;11.000;2023-09-07T03:54:26;4.43;;;4.03;;
37288;SDS011;23174;49.462;11.000;2023-09-07T03:56:27;4.53;;;3.40;;
37288;SDS011;23174;49.462;11.000;2023-09-07T03:58:27;4.47;;;4.07;;
37288;SDS011;23174;49.462;11.000;2023-09-07T04:00:28;4.05;;;3.65;;
37288;SDS011;23174;49.462;11.000;2023-09-07T04:02:28;4.05;;;3.75;;
37288;SDS011;23174;49.462;11.000;2023-09-07T04:04:29;6.40;;;3.38;;
37288;SDS011;23174;49.462;11.000;2023-09-07T04:06:29;4.28;;;3.90;;
37288;SDS011;23174;49.462;11.000;2023-09-07T04:08:30;4.80;;;3.47;;
37288;SDS011;23174;49.462;11.000;2023-09-07T04:10:30;3.95;;;3.65;;
37288;SDS011;23174;49.462;11.000;2023-09-07T04:12:31;5.60;;;3.97;;
37288;SDS011;23174;49.462;11.000;2023-09-07T04:14:33;3.72;;;3.38;;
37288;SDS011;23174;49.462;11.000;2023-09-07T04:16:33;5.47;;;3.92;;
37288;SDS011;23174;49.462;11.000;2023-09-07T04:18:34;3.85;;;3.50;;
37288;SDS011;23174;49.462;11.000;2023-09-07T04:20:34;6.68;;;4.05;;
37288;SDS011;23174;49.462;11.000;2023-09-07T04:22:35;3.60;;;3.40;;
37288;SDS011;23174;49.462;11.000;2023-09-07T04:24:35;4.53;;;4.03;;
37288;SDS011;23174;49.462;11.000;2023-09-07T04:26:36;3.97;;;3.67;;
37288;SDS011;23174;49.462;11.000;2023-09-07T04:28:38;3.60;;;3.30;;
37288;SDS011;23174;49.462;11.000;2023-09-07T04:30:39;3.45;;;3.15;;
37288;SDS011;23174;49.462;11.000;2023-09-07T04:32:40;4.72;;;3.60;;
37288;SDS011;23174;49.462;11.000;2023-09-07T04:34:40;4.57;;;3.60;;
37288;SDS011;23174;49.462;11.000;2023-09-07T04:36:41;4.15;;;3.78;;
37288;SDS011;23174;49.462;11.000;2023-09-07T04:38:41;3.67;;;3.30;;
37288;SDS011;23174;49.462;11.000;2023-09-07T04:40:42;3.97;;;3.40;;
37288;SDS011;23174;49.462;11.000;2023-09-07T04:42:42;4.25;;;3.15;;
37288;SDS011;23174;49.462;11.000;2023-09-07T04:44:43;3.60;;;3.30;;
37288;SDS011;23174;49.462;11.000;2023-09-07T04:46:43;4.10;;;3.80;;
37288;SDS011;23174;49.462;11.000;2023-09-07T04:48:44;5.85;;;3.78;;
37288;SDS011;23174;49.462;11.000;2023-09-07T04:50:44;5.50;;;3.70;;
37288;SDS011;23174;49.462;11.000;2023-09-07T04:52:45;6.15;;;3.42;;
37288;SDS011;23174;49.462;11.000;2023-09-07T04:54:45;5.35;;;3.47;;
37288;SDS011;23174;49.462;11.000;2023-09-07T04:56:46;5.47;;;3.50;;
37288;SDS011;23174;49.462;11.000;2023-09-07T04:58:46;3.65;;;3.22;;
37288;SDS011;23174;49.462;11.000;2023-09-07T05:00:47;7.20;;;3.85;;
37288;SDS011;23174;49.462;11.000;2023-09-07T05:02:47;8.32;;;3.45;;
37288;SDS011;23174;49.462;11.000;2023-09-07T05:04:48;4.55;;;3.83;;
37288;SDS011;23174;49.462;11.000;2023-09-07T05:06:50;4.57;;;4.05;;
37288;SDS011;23174;49.462;11.000;2023-09-07T05:08:50;5.47;;;4.05;;
37288;SDS011;23174;49.462;11.000;2023-09-07T05:10:57;4.63;;;4.25;;
37288;SDS011;23174;49.462;11.000;2023-09-07T05:12:59;6.10;;;4.60;;
37288;SDS011;23174;49.462;11.000;2023-09-07T05:15:00;10.55;;;5.35;;
37288;SDS011;23174;49.462;11.000;2023-09-07T05:17:00;4.82;;;4.38;;
37288;SDS011;23174;49.462;11.000;2023-09-07T05:19:01;4.93;;;4.10;;
37288;SDS011;23174;49.462;11.000;2023-09-07T05:21:10;6.25;;;4.03;;
37288;SDS011;23174;49.462;11.000;2023-09-07T05:23:14;13.10;;;4.13;;
37288;SDS011;23174;49.462;11.000;2023-09-07T05:25:16;8.93;;;4.53;;
37288;SDS011;23174;49.462;11.000;2023-09-07T05:27:16;6.25;;;4.20;;
37288;SDS011;23174;49.462;11.000;2023-09-07T05:29:17;4.70;;;4.20;;
37288;SDS011;23174;49.462;11.000;2023-09-07T05:31:17;8.80;;;4.53;;
37288;SDS011;23174;49.462;11.000;2023-09-07T05:33:18;6.50;;;4.53;;
37288;SDS011;23174;49.462;11.000;2023-09-07T05:35:18;6.72;;;4.40;;
37288;SDS011;23174;49.462;11.000;2023-09-07T05:37:20;0.70;;;0.60;;
37288;SDS011;23174;49.462;11.000;2023-09-07T05:39:21;0.65;;;0.65;;
37288;SDS011;23174;49.462;11.000;2023-09-07T05:41:21;0.45;;;0.38;;
37288;SDS011;23174;49.462;11.000;2023-09-07T05:43:22;1.73;;;1.63;;
37288;SDS011;23174;49.462;11.000;2023-09-07T05:45:22;1.70;;;1.00;;
37288;SDS011;23174;49.462;11.000;2023-09-07T05:47:23;0.38;;;0.38;;
37288;SDS011;23174;49.462;11.000;2023-09-07T05:49:26;1.05;;;0.95;;
37288;SDS011;23174;49.462;11.000;2023-09-07T05:51:26;0.82;;;0.82;;
37288;SDS011;23174;49.462;11.000;2023-09-07T05:53:27;0.63;;;0.50;;
37288;SDS011;23174;49.462;11.000;2023-09-07T05:55:28;0.82;;;0.75;;
37288;SDS011;23174;49.462;11.000;2023-09-07T05:57:29;1.05;;;0.80;;
37288;SDS011;23174;49.462;11.000;2023-09-07T05:59:29;0.35;;;0.35;;
37288;SDS011;23174;49.462;11.000;2023-09-07T06:01:30;1.08;;;0.85;;
37288;SDS011;23174;49.462;11.000;2023-09-07T06:03:30;2.53;;;0.75;;
37288;SDS011;23174;49.462;11.000;2023-09-07T06:05:33;0.93;;;0.93;;
37288;SDS011;23174;49.462;11.000;2023-09-07T06:07:35;0.47;;;0.47;;
37288;SDS011;23174;49.462;11.000;2023-09-07T06:09:36;0.75;;;0.75;;
37288;SDS011;23174;49.462;11.000;2023-09-07T06:11:36;0.80;;;0.80;;
37288;SDS011;23174;49.462;11.000;2023-09-07T06:13:37;1.00;;;0.45;;
37288;SDS011;23174;49.462;11.000;2023-09-07T06:15:37;0.63;;;0.63;;
37288;SDS011;23174;49.462;11.000;2023-09-07T06:17:38;0.60;;;0.47;;
37288;SDS011;23174;49.462;11.000;2023-09-07T06:19:38;0.85;;;0.85;;
37288;SDS011;23174;49.462;11.000;2023-09-07T06:21:41;0.55;;;0.55;;
37288;SDS011;23174;49.462;11.000;2023-09-07T06:23:42;0.57;;;0.57;;
37288;SDS011;23174;49.462;11.000;2023-09-07T06:25:43;0.32;;;0.32;;
37288;SDS011;23174;49.462;11.000;2023-09-07T06:27:43;0.30;;;0.28;;
37288;SDS011;23174;49.462;11.000;2023-09-07T06:29:44;0.77;;;0.60;;
37288;SDS011;23174;49.462;11.000;2023-09-07T06:31:44;0.65;;;0.57;;
37288;SDS011;23174;49.462;11.000;2023-09-07T06:33:45;1.20;;;0.90;;
37288;SDS011;23174;49.462;11.000;2023-09-07T06:35:45;2.60;;;0.80;;
37288;SDS011;23174;49.462;11.000;2023-09-07T06:37:45;0.75;;;0.75;;
37288;SDS011;23174;49.462;11.000;2023-09-07T06:39:46;0.50;;;0.50;;
37288;SDS011;23174;49.462;11.000;2023-09-07T06:41:46;0.57;;;0.50;;
37288;SDS011;23174;49.462;11.000;2023-09-07T06:43:47;0.85;;;0.85;;
37288;SDS011;23174;49.462;11.000;2023-09-07T06:45:48;0.50;;;0.50;;
37288;SDS011;23174;49.462;11.000;2023-09-07T06:47:49;1.15;;;0.82;;
37288;SDS011;23174;49.462;11.000;2023-09-07T06:49:50;0.52;;;0.52;;
37288;SDS011;23174;49.462;11.000;2023-09-07T06:51:51;1.40;;;0.43;;
37288;SDS011;23174;49.462;11.000;2023-09-07T06:53:51;0.35;;;0.35;;
37288;SDS011;23174;49.462;11.000;2023-09-07T06:55:57;1.60;;;1.25;;
37288;SDS011;23174;49.462;11.000;2023-09-07T06:57:58;3.25;;;1.40;;
37288;SDS011;23174;49.462;11.000;2023-09-07T07:00:02;1.20;;;1.10;;
37288;SDS011;23174;49.462;11.000;2023-09-07T07:02:05;0.82;;;0.82;;
37288;SDS011;23174;49.462;11.000;2023-09-07T07:04:05;1.02;;;1.02;;
37288;SDS011;23174;49.462;11.000;2023-09-07T07:06:07;5.88;;;1.77;;
37288;SDS011;23174;49.462;11.000;2023-09-07T07:08:09;3.78;;;0.73;;
37288;SDS011;23174;49.462;11.000;2023-09-07T07:10:09;3.03;;;2.47;;
37288;SDS011;23174;49.462;11.000;2023-09-07T07:12:10;1.02;;;0.73;;
37288;SDS011;23174;49.462;11.000;2023-09-07T07:14:12;0.60;;;0.60;;
37288;SDS011;23174;49.462;11.000;2023-09-07T07:16:13;1.55;;;1.27;;
37288;SDS011;23174;49.462;11.000;2023-09-07T07:18:13;1.30;;;1.20;;
37288;SDS011;23174;49.462;11.000;2023-09-07T07:20:14;1.92;;;1.40;;
37288;SDS011;23174;49.462;11.000;2023-09-07T07:22:14;2.63;;;1.52;;
37288;SDS011;23174;49.462;11.000;2023-09-07T07:24:15;1.27;;;1.17;;
37288;SDS011;23174;49.462;11.000;2023-09-07T07:26:16;0.73;;;0.40;;
37288;SDS011;23174;49.462;11.000;2023-09-07T07:28:17;1.17;;;1.08;;
37288;SDS011;23174;49.462;11.000;2023-09-07T07:30:17;5.88;;;1.67;;
37288;SDS011;23174;49.462;11.000;2023-09-07T07:32:18;1.02;;;0.95;;
37288;SDS011;23174;49.462;11.000;2023-09-07T07:34:19;2.35;;;2.13;;
37288;SDS011;23174;49.462;11.000;2023-09-07T07:36:19;0.98;;;0.98;;
37288;SDS011;23174;49.462;11.000;2023-09-07T07:38:20;2.22;;;1.70;;
37288;SDS011;23174;49.462;11.000;2023-09-07T07:40:21;0.63;;;0.50;;
37288;SDS011;23174;49.462;11.000;2023-09-07T07:42:21;0.82;;;0.82;;
37288;SDS011;23174;49.462;11.000;2023-09-07T07:44:22;2.55;;;1.67;;
37288;SDS011;23174;49.462;11.000;2023-09-07T07:46:22;0.85;;;0.85;;
37288;SDS011;23174;49.462;11.000;2023-09-07T07:48:23;1.10;;;0.70;;
37288;SDS011;23174;49.462;11.000;2023-09-07T07:50:23;1.90;;;1.35;;
37288;SDS011;23174;49.462;11.000;2023-09-07T07:52:24;0.82;;;0.75;;
37288;SDS011;23174;49.462;11.000;2023-09-07T07:54:24;2.03;;;1.88;;
37288;SDS011;23174;49.462;11.000;2023-09-07T07:56:25;4.53;;;1.27;;
37288;SDS011;23174;49.462;11.000;2023-09-07T07:58:26;2.15;;;1.23;;
37288;SDS011;23174;49.462;11.000;2023-09-07T08:00:26;0.95;;;0.90;;
37288;SDS011;23174;49.462;11.000;2023-09-07T08:02:27;1.85;;;1.50;;
37288;SDS011;23174;49.462;11.000;2023-09-07T08:04:28;1.83;;;1.70;;
37288;SDS011;23174;49.462;11.000;2023-09-07T08:06:29;1.05;;;0.95;;
37288;SDS011;23174;49.462;11.000;2023-09-07T08:08:29;4.40;;;2.03;;
37288;SDS011;23174;49.462;11.000;2023-09-07T08:10:33;5.05;;;1.63;;
37288;SDS011;23174;49.462;11.000;2023-09-07T08:12:36;1.42;;;1.20;;
37288;SDS011;23174;49.462;11.000;2023-09-07T08:14:36;3.85;;;1.55;;
37288;SDS011;23174;49.462;11.000;2023-09-07T08:16:37;2.85;;;1.40;;
37288;SDS011;23174;49.462;11.000;2023-09-07T08:18:37;0.63;;;0.60;;
37288;SDS011;23174;49.462;11.000;2023-09-07T08:20:39;2.55;;;1.27;;
37288;SDS011;23174;49.462;11.000;2023-09-07T08:22:41;1.00;;;0.93;;
37288;SDS011;23174;49.462;11.000;2023-09-07T08:24:42;1.00;;;0.80;;
37288;SDS011;23174;49.462;11.000;2023-09-07T08:26:44;2.00;;;1.80;;
37288;SDS011;23174;49.462;11.000;2023-09-07T08:28:44;2.05;;;1.35;;
37288;SDS011;23174;49.462;11.000;2023-09-07T08:30:46;5.22;;;1.55;;
37288;SDS011;23174;49.462;11.000;2023-09-07T08:32:48;1.85;;;1.75;;
37288;SDS011;23174;49.462;11.000;2023-09-07T08:34:51;4.75;;;2.17;;
37288;SDS011;23174;49.462;11.000;2023-09-07T08:36:56;0.45;;;0.45;;
37288;SDS011;23174;49.462;11.000;2023-09-07T08:39:01;2.33;;;0.82;;
37288;SDS011;23174;49.462;11.000;2023-09-07T08:41:07;2.55;;;2.00;;
37288;SDS011;23174;49.462;11.000;2023-09-07T08:43:08;2.63;;;1.50;;
37288;SDS011;23174;49.462;11.000;2023-09-07T08:45:13;0.65;;;0.65;;
37288;SDS011;23174;49.462;11.000;2023-09-07T08:47:20;2.08;;;1.98;;
37288;SDS011;23174;49.462;11.000;2023-09-07T08:49:21;0.65;;;0.60;;
37288;SDS011;23174;49.462;11.000;2023-09-07T08:51:23;1.48;;;1.38;;
37288;SDS011;23174;49.462;11.000;2023-09-07T08:53:27;6.15;;;2.55;;
37288;SDS011;23174;49.462;11.000;2023-09-07T08:55:31;2.03;;;1.42;;
37288;SDS011;23174;49.462;11.000;2023-09-07T08:57:33;0.50;;;0.50;;
37288;SDS011;23174;49.462;11.000;2023-09-07T08:59:33;9.32;;;2.55;;
37288;SDS011;23174;49.462;11.000;2023-09-07T09:01:34;0.40;;;0.40;;
37288;SDS011;23174;49.462;11.000;2023-09-07T09:03:35;1.20;;;1.15;;
37288;SDS011;23174;49.462;11.000;2023-09-07T09:05:38;1.60;;;1.50;;
37288;SDS011;23174;49.462;11.000;2023-09-07T09:07:39;0.95;;;0.75;;
37288;SDS011;23174;49.462;11.000;2023-09-07T09:09:39;0.57;;;0.57;;
37288;SDS011;23174;49.462;11.000;2023-09-07T09:11:39;3.58;;;1.90;;
37288;SDS011;23174;49.462;11.000;2023-09-07T09:13:40;1.50;;;1.40;;
37288;SDS011;23174;49.462;11.000;2023-09-07T09:15:41;1.67;;;1.35;;
37288;SDS011;23174;49.462;11.000;2023-09-07T09:17:41;1.63;;;1.52;;
37288;SDS011;23174;49.462;11.000;2023-09-07T09:19:42;1.63;;;1.52;;
37288;SDS011;23174;49.462;11.000;2023-09-07T09:21:43;0.82;;;0.77;;
37288;SDS011;23174;49.462;11.000;2023-09-07T09:23:44;10.02;;;4.00;;
37288;SDS011;23174;49.462;11.000;2023-09-07T09:25:50;3.58;;;3.28;;
37288;SDS011;23174;49.462;11.000;2023-09-07T09:27:51;3.58;;;3.28;;
37288;SDS011;23174;49.462;11.000;2023-09-07T09:29:51;4.63;;;3.55;;
37288;SDS011;23174;49.462;11.000;2023-09-07T09:31:52;6.72;;;3.47;;
37288;SDS011;23174;49.462;11.000;2023-09-07T09:33:52;3.83;;;3.45;;
37288;SDS011;23174;49.462;11.000;2023-09-07T09:35:53;8.07;;;3.90;;
37288;SDS011;23174;49.462;11.000;2023-09-07T09:37:54;4.70;;;3.25;;
37288;SDS011;23174;49.462;11.000;2023-09-07T09:39:55;4.88;;;3.17;;
37288;SDS011;23174;49.462;11.000;2023-09-07T09:41:59;3.22;;;2.88;;
37288;SDS011;23174;49.462;11.000;2023-09-07T09:44:00;3.72;;;3.40;;
37288;SDS011;23174;49.462;11.000;2023-09-07T09:46:03;4.40;;;2.80;;
37288;SDS011;23174;49.462;11.000;2023-09-07T09:48:05;5.05;;;3.42;;
37288;SDS011;23174;49.462;11.000;2023-09-07T09:50:07;5.90;;;3.38;;
37288;SDS011;23174;49.462;11.000;2023-09-07T09:52:09;4.10;;;3.70;;
37288;SDS011;23174;49.462;11.000;2023-09-07T09:54:11;6.30;;;3.63;;
37288;SDS011;23174;49.462;11.000;2023-09-07T09:56:13;13.25;;;3.40;;
37288;SDS011;23174;49.462;11.000;2023-09-07T09:58:14;5.93;;;3.40;;
37288;SDS011;23174;49.462;11.000;2023-09-07T10:00:15;8.82;;;3.97;;
37288;SDS011;23174;49.462;11.000;2023-09-07T10:02:17;3.58;;;3.25;;
37288;SDS011;23174;49.462;11.000;2023-09-07T10:04:17;4.55;;;3.20;;
37288;SDS011;23174;49.462;11.000;2023-09-07T10:06:24;4.90;;;3.72;;
37288;SDS011;23174;49.462;11.000;2023-09-07T10:08:25;3.97;;;3.30;;
37288;SDS011;23174;49.462;11.000;2023-09-07T10:10:37;3.58;;;3.28;;
37288;SDS011;23174;49.462;11.000;2023-09-07T10:12:50;3.42;;;3.08;;
37288;SDS011;23174;49.462;11.000;2023-09-07T10:14:53;4.38;;;3.25;;
37288;SDS011;23174;49.462;11.000;2023-09-07T10:16:55;5.30;;;3.50;;
37288;SDS011;23174;49.462;11.000;2023-09-07T10:18:59;3.80;;;2.92;;
37288;SDS011;23174;49.462;11.000;2023-09-07T10:21:00;3.30;;;3.00;;
37288;SDS011;23174;49.462;11.000;2023-09-07T10:23:03;3.55;;;3.25;;
37288;SDS011;23174;49.462;11.000;2023-09-07T10:25:04;3.17;;;2.90;;
37288;SDS011;23174;49.462;11.000;2023-09-07T10:27:07;3.50;;;3.20;;
37288;SDS011;23174;49.462;11.000;2023-09-07T10:29:09;3.60;;;3.05;;
37288;SDS011;23174;49.462;11.000;2023-09-07T10:31:14;4.45;;;2.85;;
37288;SDS011;23174;49.462;11.000;2023-09-07T10:33:22;3.03;;;2.80;;
37288;SDS011;23174;49.462;11.000;2023-09-07T10:35:22;4.88;;;3.10;;
37288;SDS011;23174;49.462;11.000;2023-09-07T10:37:27;3.33;;;3.10;;
37288;SDS011;23174;49.462;11.000;2023-09-07T10:39:31;5.47;;;2.85;;
37288;SDS011;23174;49.462;11.000;2023-09-07T10:41:42;3.22;;;2.88;;
37288;SDS011;23174;49.462;11.000;2023-09-07T10:43:50;4.20;;;2.75;;
37288;SDS011;23174;49.462;11.000;2023-09-07T10:45:52;3.58;;;3.10;;
37288;SDS011;23174;49.462;11.000;2023-09-07T10:47:53;3.30;;;3.05;;
37288;SDS011;23174;49.462;11.000;2023-09-07T10:49:54;3.70;;;3.17;;
37288;SDS011;23174;49.462;11.000;2023-09-07T10:51:57;4.55;;;2.65;;
37288;SDS011;23174;49.462;11.000;2023-09-07T10:53:58;3.97;;;2.75;;
37288;SDS011;23174;49.462;11.000;2023-09-07T10:55:59;3.83;;;2.60;;
37288;SDS011;23174;49.462;11.000;2023-09-07T10:58:02;3.83;;;3.03;;
37288;SDS011;23174;49.462;11.000;2023-09-07T11:00:03;4.20;;;2.60;;
37288;SDS011;23174;49.462;11.000;2023-09-07T11:02:05;8.10;;;2.90;;
37288;SDS011;23174;49.462;11.000;2023-09-07T11:04:06;3.50;;;3.15;;
37288;SDS011;23174;49.462;11.000;2023-09-07T11:06:17;2.83;;;2.50;;
37288;SDS011;23174;49.462;11.000;2023-09-07T11:08:20;2.85;;;2.65;;
37288;SDS011;23174;49.462;11.000;2023-09-07T11:10:20;2.35;;;2.15;;
37288;SDS011;23174;49.462;11.000;2023-09-07T11:12:21;4.25;;;2.88;;
37288;SDS011;23174;49.462;11.000;2023-09-07T11:14:22;6.63;;;2.63;;
37288;SDS011;23174;49.462;11.000;2023-09-07T11:16:24;3.08;;;2.17;;
37288;SDS011;23174;49.462;11.000;2023-09-07T11:18:26;6.05;;;3.05;;
37288;SDS011;23174;49.462;11.000;2023-09-07T11:20:26;3.13;;;2.75;;
37288;SDS011;23174;49.462;11.000;2023-09-07T11:22:28;2.65;;;2.45;;
37288;SDS011;23174;49.462;11.000;2023-09-07T11:24:28;2.92;;;2.63;;
37288;SDS011;23174;49.462;11.000;2023-09-07T11:26:29;3.33;;;2.67;;
37288;SDS011;23174;49.462;11.000;2023-09-07T11:28:40;4.57;;;2.30;;
37288;SDS011;23174;49.462;11.000;2023-09-07T11:30:54;3.95;;;2.70;;
37288;SDS011;23174;49.462;11.000;2023-09-07T11:35:02;2.95;;;2.47;;
37288;SDS011;23174;49.462;11.000;2023-09-07T11:37:07;2.83;;;2.63;;
37288;SDS011;23174;49.462;11.000;2023-09-07T11:39:07;2.80;;;2.60;;
37288;SDS011;23174;49.462;11.000;2023-09-07T11:41:14;3.20;;;2.90;;
37288;SDS011;23174;49.462;11.000;2023-09-07T11:43:15;2.97;;;2.25;;
37288;SDS011;23174;49.462;11.000;2023-09-07T11:45:16;3.10;;;2.80;;
37288;SDS011;23174;49.462;11.000;2023-09-07T11:47:18;5.05;;;2.90;;
37288;SDS011;23174;49.462;11.000;2023-09-07T11:49:18;5.70;;;2.83;;
37288;SDS011;23174;49.462;11.000;2023-09-07T11:51:21;3.70;;;3.17;;
37288;SDS011;23174;49.462;11.000;2023-09-07T11:53:22;2.78;;;2.53;;
37288;SDS011;23174;49.462;11.000;2023-09-07T11:55:22;3.25;;;2.70;;
37288;SDS011;23174;49.462;11.000;2023-09-07T11:57:22;5.80;;;2.67;;
37288;SDS011;23174;49.462;11.000;2023-09-07T11:59:23;3.00;;;2.80;;
37288;SDS011;23174;49.462;11.000;2023-09-07T12:01:24;3.30;;;3.10;;